ADDS METAR Data INFO
IDs: Format: Raw Decoded Include TAF

Data at: 0212 UTC 19 Jul 2018

KHDO 190151Z AUTO 14006KT 10SM CLR 34/15 A2989 RMK AO2 SLP103 T03440150
KHDO 190051Z AUTO 14008KT 10SM CLR 38/14 A2988 RMK AO2 SLP099 T03780144
KHDO 182351Z AUTO 13007KT 10SM CLR 39/16 A2988 RMK AO2 SLP098 T03940156 10406 20356 56018
KHDO 182251Z AUTO 11005KT 10SM CLR 40/15 A2989 RMK AO2 SLP102 T04000150
KHDO 182151Z AUTO VRB05KT 10SM CLR 40/13 A2991 RMK AO2 SLP108 T04000133
KHDO 182051Z AUTO 14007KT 100V190 10SM CLR 40/17 A2993 RMK AO2 SLP116 T04000167 56026
KHDO 181951Z AUTO 10SM CLR 38/17 A2996 RMK AO2 SLP125 T03830172
KHDO 181851Z AUTO 15007KT 10SM CLR 37/19 A2997 RMK AO2 SLP131 T03720194
KHDO 181751Z AUTO VRB06KT 10SM CLR 36/19 A3001 RMK AO2 SLP143 T03560194 10356 20239 58015
KHDO 181651Z AUTO 17005KT 10SM CLR 34/21 A3003 RMK AO2 SLP149 T03390211
KHDO 181551Z AUTO 17005KT 10SM CLR 32/22 A3004 RMK AO2 SLP154 T03170217
KHDO 181451Z AUTO VRB04KT 10SM CLR 29/22 A3006 RMK AO2 SLP160 T02940222 50001
KHDO 181351Z AUTO 12005KT 9SM CLR 27/24 A3006 RMK AO2 SLP163 T02720239
KHDO 181302Z AUTO 10004KT 6SM BR FEW005 26/24 A3005 RMK AO2 T02560239
KHDO 181251Z AUTO 09003KT 6SM BR CLR 25/24 A3005 RMK AO2 SLP158 T02500239
KHDO 181151Z AUTO 07004KT 8SM CLR 24/23 A3005 RMK AO2 SLP159 T02390228 10283 20239 53003 $
KHDO 181051Z AUTO 06005KT 9SM CLR 24/23 A3005 RMK AO2 SLP155 T02440228 $
KHDO 180951Z AUTO 10004KT 10SM CLR 26/24 A3004 RMK AO2 SLP153 T02560239 $
KHDO 180851Z AUTO 12005KT 10SM CLR 26/24 A3004 RMK AO2 SLP155 T02610239 53005 $
KHDO 180751Z AUTO 12006KT 10SM CLR 27/24 A3004 RMK AO2 SLP154 T02720239 $
KHDO 180651Z AUTO 13008KT 10SM CLR 28/24 A3003 RMK AO2 SLP150 T02780244 $
KHDO 180551Z AUTO 14009KT 10SM CLR 28/24 A3003 RMK AO2 SLP150 T02830244 10378 20283 403890239 51011 $
KHDO 180451Z AUTO 15012KT 10SM CLR 30/24 A3002 RMK AO2 SLP146 T03000244 $
KHDO 180351Z AUTO 14010KT 10SM CLR 31/19 A3001 RMK AO2 SLP145 T03110189 $
KHDO 180251Z AUTO 14009KT 10SM CLR 33/17 A3000 RMK AO2 SLP139 T03280172 53005 $
KHDO 180151Z AUTO 13007KT 10SM CLR 34/16 A2999 RMK AO2 SLP136 T03390156 $
KHDO 180051Z AUTO 15008KT 10SM CLR 36/15 A2998 RMK AO2 SLP134 T03610150
KHDO 172351Z AUTO 15010KT 10SM CLR 38/14 A2998 RMK AO2 SLP133 T03780144 10389 20339 56012 $
KHDO 172251Z AUTO 16008KT 140V210 10SM CLR 38/15 A2999 RMK AO2 SLP136 T03830150 $
KHDO 172151Z AUTO 15008KT 120V180 10SM CLR 39/13 A3000 RMK AO2 SLP141 T03890133 $
KHDO 172051Z AUTO 13007G15KT 110V170 10SM CLR 38/14 A3002 RMK AO2 SLP145 T03830144 58020 $
KHDO 171951Z AUTO 10SM CLR 37/18 A3004 RMK AO2 SLP155 T03720183 $
KHDO 171851Z AUTO VRB03KT 10SM CLR 35/19 A3006 RMK AO2 SLP160 T03500194 $
KHDO 171751Z AUTO VRB05KT 10SM CLR 34/21 A3008 RMK AO2 SLP167 T03390211 10344 20244 56012 $
KHDO 171651Z AUTO 17005KT 10SM CLR 32/22 A3009 RMK AO2 SLP171 T03220217 $
KHDO 171551Z AUTO 16008KT 10SM CLR 31/21 A3010 RMK AO2 SLP176 T03060211 $
KHDO 171451Z AUTO VRB04KT 10SM FEW017 28/22 A3011 RMK AO2 SLP180 T02830222 51006 $